Time;durP1;ratioP1;P1;durP2;ratioP2;P2;SDS_P1;SDS_P2;PMS_P1;PMS_P2;Temp;Humidity;BMP_temperature;BMP_pressure;BME280_temperature;BME280_humidity;BME280_pressure;Samples;Min_cycle;Max_cycle;Signal;HPM_P1;HPM_P2
2021/06/01 00:01:03;;;;;;;9.70;8.33;;;17.00;98.30;;;;;;4037739;29;20469;-82
2021/06/01 00:03:06;;;;;;;10.90;7.90;;;16.90;98.30;;;;;;4038841;29;20545;-82
2021/06/01 00:05:09;;;;;;;9.93;8.13;;;16.90;98.30;;;;;;4036775;29;20473;-83
2021/06/01 00:07:11;;;;;;;10.13;9.10;;;16.90;98.30;;;;;;4037374;29;20541;-82
2021/06/01 00:09:16;;;;;;;11.30;8.47;;;16.90;98.30;;;;;;4038299;29;20477;-82
2021/06/01 00:11:20;;;;;;;10.63;9.53;;;16.90;98.30;;;;;;4037726;29;20500;-83
2021/06/01 00:13:23;;;;;;;12.43;10.50;;;16.80;98.30;;;;;;4037285;29;20540;-81
2021/06/01 00:15:25;;;;;;;10.53;9.30;;;16.80;98.30;;;;;;4037280;29;20588;-82
2021/06/01 00:17:28;;;;;;;16.13;8.90;;;16.80;98.30;;;;;;4036460;29;21134;-81
2021/06/01 00:19:31;;;;;;;10.00;8.17;;;16.80;98.30;;;;;;4036965;29;20513;-81
2021/06/01 00:21:34;;;;;;;8.70;7.80;;;16.80;98.30;;;;;;4036163;29;20556;-82
2021/06/01 00:23:37;;;;;;;9.43;8.33;;;16.80;98.30;;;;;;4034395;29;20781;-81
2021/06/01 00:25:40;;;;;;;8.53;7.63;;;16.70;98.30;;;;;;4034632;29;21018;-81
2021/06/01 00:27:44;;;;;;;9.03;8.10;;;16.70;98.30;;;;;;4034750;29;20731;-82
2021/06/01 00:29:46;;;;;;;10.37;9.27;;;16.70;98.30;;;;;;4035371;29;20469;-81
2021/06/01 00:31:49;;;;;;;9.17;7.67;;;16.70;98.30;;;;;;4035821;29;21118;-82
2021/06/01 00:33:51;;;;;;;9.73;8.30;;;16.70;98.30;;;;;;4035331;29;20473;-81
2021/06/01 00:35:54;;;;;;;10.93;7.87;;;16.60;98.30;;;;;;4036306;29;20513;-82
2021/06/01 00:37:56;;;;;;;11.80;8.30;;;16.70;98.30;;;;;;4035971;29;20597;-82
2021/06/01 00:39:59;;;;;;;10.40;8.03;;;16.70;98.30;;;;;;4039603;29;20986;-83
2021/06/01 00:42:01;;;;;;;10.37;8.20;;;16.70;98.30;;;;;;4039820;29;20480;-82
2021/06/01 00:44:06;;;;;;;11.40;8.63;;;16.60;98.30;;;;;;4041385;29;20465;-82
2021/06/01 00:46:08;;;;;;;8.27;7.47;;;16.60;98.30;;;;;;4040688;29;20489;-82
2021/06/01 00:48:11;;;;;;;9.10;7.90;;;16.60;98.30;;;;;;4041029;29;20484;-82
2021/06/01 00:50:14;;;;;;;8.60;7.70;;;16.60;98.30;;;;;;4041205;29;20492;-82
2021/06/01 00:52:16;;;;;;;8.63;7.50;;;16.60;98.30;;;;;;4041005;29;20492;-83
2021/06/01 00:54:19;;;;;;;10.00;9.07;;;16.60;98.30;;;;;;4033446;29;21053;-81
2021/06/01 00:56:22;;;;;;;8.33;7.50;;;16.60;98.30;;;;;;4034954;29;20620;-83
2021/06/01 00:58:25;;;;;;;8.73;7.83;;;16.50;98.30;;;;;;4035286;29;20473;-81
2021/06/01 01:00:51;;;;;;;9.13;7.77;;;16.50;98.30;;;;;;4034841;29;20485;-81
2021/06/01 01:02:53;;;;;;;8.97;7.80;;;16.50;98.30;;;;;;4035861;29;20500;-82
2021/06/01 01:04:56;;;;;;;8.87;7.97;;;16.50;98.30;;;;;;4034087;29;20488;-82
2021/06/01 01:07:14;;;;;;;8.73;7.73;;;16.40;98.30;;;;;;4036067;29;20484;-81
2021/06/01 01:09:17;;;;;;;8.20;7.30;;;16.30;98.30;;;;;;4035853;29;20544;-82
2021/06/01 01:11:27;;;;;;;10.83;7.63;;;16.30;98.30;;;;;;4036410;29;20489;-82
2021/06/01 01:13:36;;;;;;;9.87;7.73;;;16.30;98.30;;;;;;4035733;29;20468;-82
2021/06/01 01:15:41;;;;;;;8.33;7.43;;;16.30;98.30;;;;;;4034863;29;20503;-82
2021/06/01 01:17:47;;;;;;;8.47;7.60;;;16.20;98.30;;;;;;4035696;29;20552;-82
2021/06/01 01:20:02;;;;;;;13.97;7.83;;;16.10;98.30;;;;;;4037123;29;20987;-83
2021/06/01 01:22:05;;;;;;;7.87;6.93;;;16.10;98.30;;;;;;4038380;29;20568;-83
2021/06/01 01:24:33;;;;;;;8.40;7.50;;;16.10;98.30;;;;;;4038648;29;20476;-82
2021/06/01 01:26:51;;;;;;;9.30;7.27;;;16.10;98.30;;;;;;4037877;29;20504;-81
2021/06/01 01:29:07;;;;;;;8.67;7.50;;;16.00;98.30;;;;;;4038006;29;20476;-81
2021/06/01 01:31:20;;;;;;;11.10;8.10;;;15.90;98.30;;;;;;4036404;29;20489;-81
2021/06/01 01:33:26;;;;;;;8.57;7.70;;;15.90;98.30;;;;;;4036589;29;20556;-82
2021/06/01 01:35:31;;;;;;;8.87;7.70;;;15.90;98.30;;;;;;4036611;29;20497;-81
2021/06/01 01:37:36;;;;;;;9.60;8.60;;;15.90;98.30;;;;;;4035966;29;20491;-81
2021/06/01 01:39:45;;;;;;;10.87;8.37;;;15.90;98.30;;;;;;4038759;29;20473;-83
2021/06/01 01:41:48;;;;;;;8.03;7.23;;;15.80;98.30;;;;;;4038796;29;21042;-82
2021/06/01 01:43:52;;;;;;;11.43;7.73;;;15.90;98.30;;;;;;4038883;29;20469;-82
2021/06/01 01:46:04;;;;;;;9.47;7.97;;;15.90;98.30;;;;;;4038244;29;21014;-83
2021/06/01 01:50:32;;;;;;;11.80;8.43;;;15.90;98.30;;;;;;4039243;29;20851;-82
2021/06/01 01:52:37;;;;;;;8.37;7.50;;;15.80;98.30;;;;;;4039187;29;20496;-82
2021/06/01 01:54:40;;;;;;;8.70;7.90;;;15.80;98.30;;;;;;4038017;29;20465;-82
2021/06/01 01:56:46;;;;;;;8.87;7.70;;;15.80;98.30;;;;;;4037346;29;20495;-82
2021/06/01 01:58:50;;;;;;;11.87;7.93;;;15.80;98.30;;;;;;4036443;29;20483;-82
2021/06/01 02:00:53;;;;;;;10.60;7.53;;;15.80;98.30;;;;;;4036877;29;20584;-82
2021/06/01 02:02:56;;;;;;;12.23;7.70;;;15.70;98.30;;;;;;4037305;29;20840;-82
2021/06/01 02:05:00;;;;;;;8.83;7.97;;;15.70;98.30;;;;;;4037098;29;20481;-82
2021/06/01 02:07:04;;;;;;;11.57;8.30;;;15.70;98.30;;;;;;4037277;29;20484;-81
2021/06/01 02:09:08;;;;;;;13.00;9.50;;;15.70;98.30;;;;;;4036774;29;20516;-82
2021/06/01 02:11:11;;;;;;;10.27;8.77;;;15.70;98.30;;;;;;4044378;29;20477;-82
2021/06/01 02:13:14;;;;;;;10.40;8.57;;;15.70;98.30;;;;;;4049219;29;20475;-82
2021/06/01 02:15:16;;;;;;;9.10;8.20;;;15.70;98.30;;;;;;4046238;29;20507;-81
2021/06/01 02:17:19;;;;;;;10.20;7.90;;;15.70;98.30;;;;;;4046011;29;20533;-81
2021/06/01 02:19:22;;;;;;;11.10;8.30;;;15.70;98.30;;;;;;4046427;29;20476;-81
2021/06/01 02:21:34;;;;;;;9.23;7.67;;;15.70;98.30;;;;;;4045362;29;20512;-81
2021/06/01 02:23:48;;;;;;;9.90;8.80;;;15.70;98.30;;;;;;4043072;29;20476;-81
2021/06/01 02:25:58;;;;;;;9.80;8.00;;;15.70;98.30;;;;;;4037130;29;21448;-82
2021/06/01 02:28:11;;;;;;;8.63;7.63;;;15.70;98.30;;;;;;4037775;29;20490;-82
2021/06/01 02:30:17;;;;;;;10.10;8.07;;;15.70;98.30;;;;;;4037974;29;20487;-84
2021/06/01 02:32:20;;;;;;;10.20;8.30;;;15.60;98.30;;;;;;4038948;29;20532;-82
2021/06/01 02:34:25;;;;;;;9.70;8.40;;;15.60;98.30;;;;;;4036430;29;20505;-82
2021/06/01 02:36:29;;;;;;;9.20;8.30;;;15.60;98.30;;;;;;4036205;29;20493;-82
2021/06/01 02:38:34;;;;;;;10.37;8.00;;;15.50;98.30;;;;;;4036237;29;20476;-83
2021/06/01 02:40:39;;;;;;;12.83;8.37;;;15.50;98.30;;;;;;4037001;29;20477;-82
2021/06/01 02:42:43;;;;;;;8.60;7.80;;;15.50;98.30;;;;;;4036422;29;21024;-82
2021/06/01 02:44:46;;;;;;;13.33;9.27;;;15.50;98.30;;;;;;4036416;29;20520;-82
2021/06/01 02:46:49;;;;;;;9.00;7.73;;;15.50;98.30;;;;;;4036494;29;20564;-82
2021/06/01 02:48:52;;;;;;;9.30;8.33;;;15.50;98.30;;;;;;4036637;29;20508;-83
2021/06/01 02:51:14;;;;;;;12.90;9.47;;;15.50;98.30;;;;;;4039625;29;20469;-82
2021/06/01 02:53:18;;;;;;;9.47;8.47;;;15.50;98.30;;;;;;4039220;29;21122;-82
2021/06/01 02:55:21;;;;;;;9.10;7.93;;;15.50;98.30;;;;;;4037286;29;20493;-82
2021/06/01 02:57:25;;;;;;;11.30;8.60;;;15.40;98.30;;;;;;4038103;29;20477;-82
2021/06/01 02:59:28;;;;;;;9.30;8.30;;;15.40;98.30;;;;;;4036846;29;20564;-82
2021/06/01 03:01:31;;;;;;;9.87;8.67;;;15.30;98.30;;;;;;4037745;29;20481;-81
2021/06/01 03:03:34;;;;;;;12.97;8.80;;;15.30;98.30;;;;;;4037333;29;20477;-82
2021/06/01 03:05:36;;;;;;;9.37;8.20;;;15.30;98.30;;;;;;4037228;29;20527;-83
2021/06/01 03:07:39;;;;;;;9.50;8.50;;;15.30;98.30;;;;;;4036317;29;20484;-82
2021/06/01 03:09:42;;;;;;;9.50;8.47;;;15.30;98.30;;;;;;4036112;29;20488;-82
2021/06/01 03:11:46;;;;;;;10.00;8.90;;;15.20;98.30;;;;;;4035709;29;20595;-82
2021/06/01 03:13:52;;;;;;;9.73;8.70;;;15.20;98.30;;;;;;4036745;29;20477;-82
2021/06/01 03:15:55;;;;;;;11.70;8.93;;;15.00;98.30;;;;;;4035469;29;20584;-82
2021/06/01 03:17:58;;;;;;;10.67;9.20;;;14.90;98.30;;;;;;4037082;29;20483;-81
2021/06/01 03:20:03;;;;;;;10.00;8.40;;;14.70;98.30;;;;;;4035626;29;20485;-82
2021/06/01 03:22:05;;;;;;;11.00;8.60;;;14.50;98.30;;;;;;4035637;29;20901;-82
2021/06/01 03:24:09;;;;;;;11.23;10.00;;;14.30;98.30;;;;;;4037081;29;20500;-83
2021/06/01 03:26:12;;;;;;;11.00;8.73;;;14.30;98.30;;;;;;4036390;29;20564;-82
2021/06/01 03:28:15;;;;;;;9.67;7.73;;;14.20;98.30;;;;;;4036756;29;20505;-82
2021/06/01 03:30:20;;;;;;;11.53;9.40;;;14.20;98.30;;;;;;4036434;29;20476;-82
2021/06/01 03:32:23;;;;;;;12.63;8.90;;;14.10;98.30;;;;;;4036722;29;20597;-81
2021/06/01 03:34:25;;;;;;;13.47;11.10;;;14.20;98.30;;;;;;4036875;29;20596;-82
2021/06/01 03:36:28;;;;;;;14.20;10.57;;;14.10;98.30;;;;;;4036582;29;20504;-82
2021/06/01 03:38:33;;;;;;;14.63;9.90;;;14.10;98.30;;;;;;4036155;29;20473;-82
2021/06/01 03:40:36;;;;;;;10.50;9.23;;;14.10;98.30;;;;;;4036042;29;20564;-83
2021/06/01 03:42:38;;;;;;;13.90;10.30;;;14.00;98.30;;;;;;4036718;29;20902;-82
2021/06/01 03:44:41;;;;;;;16.33;11.83;;;14.00;98.30;;;;;;4036804;29;20488;-82
2021/06/01 03:46:45;;;;;;;12.17;10.87;;;14.20;98.30;;;;;;4036838;29;20497;-82
2021/06/01 03:48:47;;;;;;;14.67;12.50;;;14.40;98.30;;;;;;4036595;29;20475;-81
2021/06/01 03:50:50;;;;;;;12.70;10.97;;;14.50;98.30;;;;;;4036348;29;20993;-81
2021/06/01 03:52:53;;;;;;;15.30;11.70;;;14.60;98.30;;;;;;4034628;29;20535;-81
2021/06/01 03:54:55;;;;;;;16.47;12.87;;;14.80;98.30;;;;;;4034974;29;21058;-82
2021/06/01 03:57:03;;;;;;;16.60;12.33;;;14.90;98.30;;;;;;4035218;29;20481;-82
2021/06/01 03:59:06;;;;;;;14.20;10.17;;;14.90;98.30;;;;;;4035486;29;20571;-82
2021/06/01 04:01:08;;;;;;;13.53;11.53;;;15.10;98.30;;;;;;4035930;29;20540;-83
2021/06/01 04:03:12;;;;;;;11.80;10.57;;;15.10;98.30;;;;;;4036316;29;20484;-83
2021/06/01 04:05:15;;;;;;;15.00;11.83;;;15.20;98.30;;;;;;4037688;29;21022;-81
2021/06/01 04:07:21;;;;;;;13.13;11.07;;;15.20;98.30;;;;;;4038303;29;20678;-82
2021/06/01 04:09:23;;;;;;;10.53;9.43;;;15.20;98.30;;;;;;4039255;29;20472;-82
2021/06/01 04:11:25;;;;;;;11.60;10.40;;;15.10;98.30;;;;;;4037694;29;20476;-82
2021/06/01 04:13:28;;;;;;;14.60;10.77;;;15.20;98.30;;;;;;4032477;29;20536;-81
2021/06/01 04:15:33;;;;;;;12.90;10.00;;;15.30;98.30;;;;;;4037542;29;20559;-82
2021/06/01 04:17:35;;;;;;;11.70;10.37;;;15.40;98.30;;;;;;4037265;29;20508;-81
2021/06/01 04:19:39;;;;;;;13.30;11.80;;;15.40;98.30;;;;;;4034288;29;20476;-82
2021/06/01 04:21:42;;;;;;;15.37;12.50;;;15.50;98.30;;;;;;4037961;29;20468;-82
2021/06/01 04:23:45;;;;;;;13.43;11.03;;;15.50;98.30;;;;;;4040454;29;20475;-82
2021/06/01 04:25:47;;;;;;;13.20;11.80;;;15.50;98.30;;;;;;4039378;29;20524;-82
2021/06/01 04:27:50;;;;;;;14.33;11.67;;;15.50;98.30;;;;;;4040085;29;20484;-81
2021/06/01 04:29:55;;;;;;;12.47;10.00;;;15.60;98.30;;;;;;4039551;29;20481;-83
2021/06/01 04:31:57;;;;;;;11.40;10.27;;;15.60;98.30;;;;;;4040962;29;20974;-82
2021/06/01 04:34:00;;;;;;;10.87;9.67;;;15.50;98.30;;;;;;4040090;29;20518;-82
2021/06/01 04:36:07;;;;;;;10.87;9.60;;;15.60;98.30;;;;;;4038598;29;20496;-82
2021/06/01 04:38:10;;;;;;;10.50;9.40;;;15.60;98.30;;;;;;4040116;29;20484;-82
2021/06/01 04:40:14;;;;;;;38.70;30.00;;;15.70;98.30;;;;;;4038689;29;20497;-83
2021/06/01 04:42:17;;;;;;;82.73;54.63;;;15.70;98.30;;;;;;4039729;29;20908;-82
2021/06/01 04:44:19;;;;;;;96.20;58.53;;;15.70;98.30;;;;;;4040905;29;20569;-82
2021/06/01 04:46:22;;;;;;;69.90;51.37;;;15.70;98.30;;;;;;4040741;29;20590;-82
2021/06/01 04:48:25;;;;;;;31.03;23.33;;;15.70;98.30;;;;;;4040600;29;20492;-82
2021/06/01 04:50:29;;;;;;;23.00;16.60;;;15.80;98.30;;;;;;4040336;29;20464;-81
2021/06/01 04:52:33;;;;;;;19.53;16.07;;;15.90;98.30;;;;;;4040644;29;20971;-82
2021/06/01 04:54:35;;;;;;;37.07;28.17;;;15.90;98.30;;;;;;4037394;29;20487;-82
2021/06/01 04:56:38;;;;;;;81.83;51.20;;;16.10;98.30;;;;;;4040599;29;20520;-81
2021/06/01 04:58:41;;;;;;;56.93;37.27;;;16.20;98.30;;;;;;4037793;29;20905;-82
2021/06/01 05:00:45;;;;;;;36.13;27.03;;;16.20;98.30;;;;;;4040262;29;20493;-82
2021/06/01 05:02:48;;;;;;;27.27;20.40;;;16.30;98.30;;;;;;4038971;29;20501;-82
2021/06/01 05:04:51;;;;;;;29.53;22.53;;;16.30;98.30;;;;;;4041129;29;20473;-83
2021/06/01 05:06:56;;;;;;;34.00;22.47;;;16.40;98.30;;;;;;4038756;29;20548;-82
2021/06/01 05:09:01;;;;;;;35.80;25.53;;;16.40;98.30;;;;;;4036751;29;20489;-83
2021/06/01 05:11:04;;;;;;;47.37;32.60;;;16.40;98.30;;;;;;4041239;29;20477;-83
2021/06/01 05:13:07;;;;;;;74.67;48.67;;;16.40;98.30;;;;;;4040759;29;20501;-82
2021/06/01 05:15:11;;;;;;;98.67;60.17;;;16.50;98.30;;;;;;4041133;29;20489;-84
2021/06/01 05:17:13;;;;;;;67.97;45.67;;;16.60;98.30;;;;;;4040786;29;20601;-82
2021/06/01 05:19:16;;;;;;;20.83;16.60;;;16.60;98.30;;;;;;4040706;29;20575;-82
2021/06/01 05:21:19;;;;;;;15.80;13.13;;;16.50;98.30;;;;;;4033081;29;20994;-82
2021/06/01 05:23:21;;;;;;;14.20;11.20;;;16.40;98.30;;;;;;4034730;29;20470;-82
2021/06/01 05:25:25;;;;;;;13.10;10.30;;;16.40;98.30;;;;;;4038252;29;20489;-81
2021/06/01 05:27:28;;;;;;;13.70;11.57;;;16.40;98.30;;;;;;4040001;29;20512;-82
2021/06/01 05:29:30;;;;;;;13.87;12.47;;;16.40;98.30;;;;;;4038572;29;20485;-82
2021/06/01 05:31:43;;;;;;;13.37;11.97;;;16.40;98.30;;;;;;4037731;29;20995;-81
2021/06/01 05:33:54;;;;;;;15.87;12.30;;;16.40;98.30;;;;;;4038331;29;20508;-81
2021/06/01 05:35:56;;;;;;;15.37;12.20;;;16.40;98.30;;;;;;4035477;29;20503;-82
2021/06/01 05:38:15;;;;;;;13.00;11.70;;;16.50;98.30;;;;;;4039284;29;20492;-85
2021/06/01 05:40:35;;;;;;;18.00;12.20;;;16.50;98.30;;;;;;4037096;29;20917;-86
2021/06/01 05:42:53;;;;;;;12.70;11.10;;;16.50;98.30;;;;;;4037580;29;20473;-84
2021/06/01 05:45:03;;;;;;;15.47;11.20;;;16.60;98.30;;;;;;4038137;29;20473;-85
2021/06/01 05:47:11;;;;;;;13.73;11.30;;;16.60;98.30;;;;;;4037176;29;20537;-85
2021/06/01 05:49:17;;;;;;;12.80;10.70;;;16.70;98.30;;;;;;4038868;29;20468;-86
2021/06/01 12:43:44;;;;;;;5.78;5.28;;;31.30;58.90;;;;;;4060690;29;20549;-83
2021/06/01 12:46:01;;;;;;;5.82;5.32;;;31.40;60.50;;;;;;4059937;29;20526;-83
2021/06/01 16:33:37;;;;;;;4.33;2.43;;;22.80;55.30;;;;;;4032574;29;20979;-85
2021/06/01 17:04:47;;;;;;;3.10;2.80;;;21.90;58.50;;;;;;4019422;29;20470;-86
2021/06/01 17:06:59;;;;;;;3.43;2.60;;;21.90;58.00;;;;;;4020208;29;20569;-89
2021/06/01 17:11:24;;;;;;;3.03;2.73;;;22.00;59.20;;;;;;4017151;29;20481;-86
2021/06/01 17:13:28;;;;;;;3.87;3.13;;;22.00;59.60;;;;;;4017362;29;20470;-86
2021/06/01 17:15:33;;;;;;;5.23;2.93;;;22.00;59.50;;;;;;4015695;29;20462;-86
2021/06/01 17:17:36;;;;;;;2.90;2.50;;;22.10;59.70;;;;;;4018638;29;20481;-89
2021/06/01 17:22:25;;;;;;;6.63;2.70;;;21.90;60.20;;;;;;4018000;29;20466;-86
2021/06/01 17:36:34;;;;;;;4.07;2.90;;;21.40;60.50;;;;;;4028750;29;20492;-88
2021/06/01 17:38:38;;;;;;;5.43;2.50;;;21.40;61.30;;;;;;4035279;29;20477;-86
2021/06/01 17:40:41;;;;;;;3.20;2.60;;;21.30;62.10;;;;;;4035469;29;20479;-90
2021/06/01 17:42:49;;;;;;;4.73;2.70;;;21.20;62.90;;;;;;4035441;29;20484;-87
2021/06/01 17:44:52;;;;;;;4.40;2.40;;;21.00;63.70;;;;;;4034579;29;20479;-86
2021/06/01 17:47:22;;;;;;;3.53;2.70;;;20.90;64.40;;;;;;4034762;29;20473;-86
2021/06/01 17:49:27;;;;;;;2.93;2.67;;;20.80;65.20;;;;;;4035285;29;20540;-87
2021/06/01 17:51:30;;;;;;;2.90;2.57;;;20.80;65.90;;;;;;4035353;29;20500;-86
2021/06/01 17:53:43;;;;;;;3.00;2.67;;;20.70;66.20;;;;;;4035677;29;20559;-86
2021/06/01 17:55:50;;;;;;;3.00;2.70;;;20.60;67.10;;;;;;4032427;29;20485;-86
2021/06/01 17:57:54;;;;;;;2.60;2.40;;;20.50;67.80;;;;;;4035205;29;20476;-86
2021/06/01 17:59:57;;;;;;;3.60;2.63;;;20.40;68.10;;;;;;4035271;29;20899;-87
2021/06/01 18:02:00;;;;;;;3.87;2.90;;;20.40;68.70;;;;;;4035391;29;20477;-86
2021/06/01 18:04:04;;;;;;;4.20;2.80;;;20.40;69.30;;;;;;4034808;29;20998;-88
2021/06/01 18:06:10;;;;;;;4.10;3.03;;;20.30;69.90;;;;;;4034967;29;20541;-86
2021/06/01 18:08:18;;;;;;;7.00;3.87;;;20.30;70.40;;;;;;4034799;29;20480;-86
2021/06/01 18:13:20;;;;;;;3.23;3.00;;;20.40;71.10;;;;;;4034159;29;20476;-87
2021/06/01 18:35:42;;;;;;;3.80;3.40;;;20.10;72.30;;;;;;4032255;29;21026;-86
2021/06/01 18:38:20;;;;;;;4.30;2.87;;;19.90;72.70;;;;;;4032038;29;20979;-85
2021/06/01 19:00:12;;;;;;;6.40;3.70;;;19.30;75.50;;;;;;4032358;29;20550;-86
2021/06/01 19:05:54;;;;;;;5.30;4.00;;;19.30;75.80;;;;;;4031335;29;20480;-86
2021/06/01 19:22:58;;;;;;;12.50;9.57;;;19.00;76.50;;;;;;4000394;29;20493;-89
2021/06/01 19:25:03;;;;;;;7.50;4.40;;;18.90;77.10;;;;;;3998173;29;20470;-85
2021/06/01 19:27:32;;;;;;;5.80;5.03;;;18.90;77.50;;;;;;4009285;29;20496;-86
2021/06/01 19:44:21;;;;;;;27.27;18.57;;;18.90;78.80;;;;;;4031464;29;20576;-86
2021/06/01 19:51:11;;;;;;;6.53;4.90;;;18.90;79.10;;;;;;4033929;29;20476;-86
2021/06/01 19:53:15;;;;;;;7.63;6.43;;;19.00;79.20;;;;;;4034993;29;20584;-87
2021/06/01 19:55:19;;;;;;;9.10;5.50;;;18.90;79.50;;;;;;4033529;29;20503;-87
2021/06/01 19:57:26;;;;;;;5.60;4.17;;;18.70;79.50;;;;;;4034254;29;20488;-86
2021/06/01 19:59:29;;;;;;;5.73;4.33;;;18.70;79.90;;;;;;4034769;29;21049;-86
2021/06/01 20:01:33;;;;;;;5.90;4.80;;;18.70;80.10;;;;;;4033993;29;20511;-85
2021/06/01 20:03:37;;;;;;;4.77;4.37;;;18.70;80.30;;;;;;4034036;29;20552;-85
2021/06/01 20:05:41;;;;;;;11.30;4.83;;;18.60;80.70;;;;;;4034720;29;20520;-85
2021/06/01 20:07:44;;;;;;;5.10;4.60;;;18.70;80.90;;;;;;4034290;29;20477;-85
2021/06/01 20:09:47;;;;;;;6.20;5.10;;;18.60;81.10;;;;;;4033785;29;20850;-85
2021/06/01 20:11:50;;;;;;;7.77;4.70;;;18.60;81.30;;;;;;4034498;29;21021;-85
2021/06/01 20:13:52;;;;;;;8.60;5.33;;;18.40;81.90;;;;;;4033931;29;20508;-84
2021/06/01 20:15:58;;;;;;;5.70;5.10;;;18.40;82.10;;;;;;4032734;29;20524;-85
2021/06/01 20:18:04;;;;;;;6.07;5.20;;;18.50;82.30;;;;;;4034253;29;20517;-85
2021/06/01 20:20:09;;;;;;;11.80;9.43;;;18.30;83.10;;;;;;4034531;29;20473;-85
2021/06/01 20:22:16;;;;;;;14.23;10.87;;;18.30;83.80;;;;;;4034087;29;20491;-85
2021/06/01 20:24:27;;;;;;;13.00;10.73;;;18.20;84.30;;;;;;4034069;29;20986;-84
2021/06/01 20:26:32;;;;;;;10.40;8.07;;;18.10;84.60;;;;;;4034022;29;20989;-85
2021/06/01 20:28:43;;;;;;;6.13;5.37;;;18.00;84.90;;;;;;4033746;29;20517;-85
2021/06/01 20:30:47;;;;;;;5.03;4.63;;;17.90;85.30;;;;;;4034623;29;20576;-85
2021/06/01 20:33:09;;;;;;;6.33;5.03;;;17.90;85.80;;;;;;4034541;29;20853;-85
2021/06/01 20:35:15;;;;;;;6.17;5.10;;;17.90;86.00;;;;;;4032967;29;20496;-86
2021/06/01 20:37:20;;;;;;;6.73;5.40;;;18.00;85.80;;;;;;4036259;29;20468;-85
2021/06/01 20:39:23;;;;;;;6.03;4.83;;;17.90;86.30;;;;;;4034489;29;21084;-85
2021/06/01 20:41:29;;;;;;;7.90;5.70;;;17.90;86.90;;;;;;4033893;29;20473;-85
2021/06/01 20:43:32;;;;;;;7.03;5.90;;;17.80;87.80;;;;;;4033644;29;20545;-87
2021/06/01 20:45:37;;;;;;;5.90;5.40;;;17.60;88.70;;;;;;4033118;29;21033;-85
2021/06/01 20:47:43;;;;;;;6.20;5.40;;;17.60;89.10;;;;;;4033973;29;20476;-85
2021/06/01 20:49:49;;;;;;;7.23;6.10;;;17.60;89.50;;;;;;4034172;29;20478;-85
2021/06/01 20:51:53;;;;;;;8.67;7.00;;;17.60;90.10;;;;;;4034237;29;21127;-85
2021/06/01 20:53:58;;;;;;;7.00;6.30;;;17.50;90.80;;;;;;4032954;29;20473;-85
2021/06/01 20:56:01;;;;;;;7.30;6.53;;;17.50;91.40;;;;;;4032280;29;20521;-85
2021/06/01 20:58:07;;;;;;;9.03;8.13;;;17.40;92.00;;;;;;4033506;29;20844;-84
2021/06/01 21:00:11;;;;;;;8.60;7.40;;;17.40;92.30;;;;;;4035493;29;20483;-83
2021/06/01 21:02:13;;;;;;;7.50;6.67;;;17.50;92.40;;;;;;4037043;29;20477;-85
2021/06/01 21:04:27;;;;;;;9.60;7.43;;;17.40;92.80;;;;;;4035875;29;20843;-85
2021/06/01 21:06:30;;;;;;;14.17;8.30;;;17.40;93.60;;;;;;4036009;29;21018;-84
2021/06/01 21:08:34;;;;;;;13.60;9.03;;;17.30;94.50;;;;;;4036511;29;20477;-85
2021/06/01 21:10:37;;;;;;;12.60;9.30;;;17.20;95.40;;;;;;4035301;29;20515;-84
2021/06/01 21:12:40;;;;;;;11.73;9.10;;;17.20;95.70;;;;;;4032781;29;20884;-84
2021/06/01 21:14:42;;;;;;;11.17;9.30;;;17.10;96.50;;;;;;4034411;29;20501;-85
2021/06/01 21:16:48;;;;;;;11.07;8.67;;;17.10;96.90;;;;;;4035575;29;20576;-84
2021/06/01 21:18:51;;;;;;;11.87;9.37;;;17.10;97.30;;;;;;4035992;29;20847;-85
2021/06/01 21:20:54;;;;;;;14.70;9.17;;;17.00;98.10;;;;;;4035868;29;20567;-84
2021/06/01 21:22:58;;;;;;;15.37;10.43;;;17.00;98.10;;;;;;4036923;29;20477;-84
2021/06/01 21:25:03;;;;;;;13.20;10.00;;;17.00;98.30;;;;;;4035785;29;20480;-84
2021/06/01 21:27:06;;;;;;;14.20;9.13;;;16.90;98.30;;;;;;4034207;29;20510;-84
2021/06/01 21:29:08;;;;;;;14.83;9.80;;;17.00;98.30;;;;;;4035610;29;20477;-84
2021/06/01 21:31:12;;;;;;;13.67;11.00;;;16.90;98.30;;;;;;4035983;29;20472;-84
2021/06/01 21:33:17;;;;;;;14.33;10.30;;;16.70;98.30;;;;;;4033729;29;20527;-85
2021/06/01 21:35:20;;;;;;;15.40;9.30;;;16.70;98.30;;;;;;4033482;29;20500;-84
2021/06/01 21:37:23;;;;;;;15.47;10.67;;;16.70;98.30;;;;;;4036126;29;20492;-85
2021/06/01 21:39:27;;;;;;;13.30;10.90;;;16.70;98.30;;;;;;4036400;29;20481;-84
2021/06/01 21:41:30;;;;;;;12.90;10.00;;;16.70;98.30;;;;;;4035765;29;20544;-84
2021/06/01 21:43:37;;;;;;;13.60;10.33;;;16.60;98.30;;;;;;4035655;29;20978;-85
2021/06/01 21:45:41;;;;;;;12.33;10.90;;;16.50;98.30;;;;;;4032916;29;20489;-85
2021/06/01 21:47:47;;;;;;;14.43;10.60;;;16.40;98.30;;;;;;4034557;29;20563;-85
2021/06/01 21:49:52;;;;;;;16.07;10.17;;;16.30;98.30;;;;;;4035085;29;20588;-85
2021/06/01 21:51:55;;;;;;;14.50;11.00;;;16.30;98.30;;;;;;4035060;29;20515;-84
2021/06/01 21:53:59;;;;;;;18.30;10.90;;;16.30;98.30;;;;;;4034911;29;20873;-85
2021/06/01 21:56:02;;;;;;;12.03;9.80;;;16.30;98.30;;;;;;4033030;29;20516;-85
2021/06/01 21:58:06;;;;;;;15.63;10.77;;;16.30;98.30;;;;;;4035415;29;20562;-85
2021/06/01 22:00:15;;;;;;;12.47;10.70;;;16.10;98.30;;;;;;4033691;29;20477;-84
2021/06/01 22:02:18;;;;;;;12.50;9.63;;;16.00;98.30;;;;;;4036460;29;20727;-85
2021/06/01 22:04:24;;;;;;;14.83;10.57;;;15.70;98.30;;;;;;4035672;29;20986;-84
2021/06/01 22:06:27;;;;;;;17.17;9.30;;;15.50;98.30;;;;;;4035875;29;21021;-84
2021/06/01 22:08:30;;;;;;;15.23;10.83;;;15.50;98.30;;;;;;4033846;29;20983;-85
2021/06/01 22:17:12;;;;;;;12.80;8.23;;;15.40;98.30;;;;;;4069253;29;20559;-83
2021/06/01 22:19:17;;;;;;;11.57;8.70;;;15.40;98.30;;;;;;4068651;29;21156;-82
2021/06/01 22:21:20;;;;;;;10.73;8.37;;;15.40;98.30;;;;;;4058702;29;20579;-83
2021/06/01 22:23:25;;;;;;;11.53;8.50;;;15.40;98.30;;;;;;4053115;29;20476;-82
2021/06/01 22:25:28;;;;;;;9.37;7.40;;;15.20;98.30;;;;;;4051803;29;20536;-83
2021/06/01 22:27:31;;;;;;;14.43;8.70;;;15.10;98.30;;;;;;4049229;29;20480;-82
2021/06/01 22:29:34;;;;;;;9.37;7.27;;;14.90;98.30;;;;;;4053355;29;20476;-83
2021/06/01 22:31:39;;;;;;;8.13;6.83;;;14.80;98.30;;;;;;4051298;29;20492;-83
2021/06/01 22:33:45;;;;;;;9.10;6.67;;;14.80;98.30;;;;;;4052513;29;20499;-83
2021/06/01 22:35:48;;;;;;;13.17;6.77;;;14.80;98.30;;;;;;4051646;29;21174;-82
2021/06/01 22:37:50;;;;;;;7.63;6.27;;;14.90;98.30;;;;;;4052630;29;20476;-82
2021/06/01 22:39:53;;;;;;;7.87;6.10;;;15.00;98.30;;;;;;4051997;29;20473;-82
2021/06/01 22:41:57;;;;;;;7.60;6.33;;;15.00;98.30;;;;;;4051186;29;20492;-83
2021/06/01 22:44:00;;;;;;;6.23;5.30;;;15.00;98.30;;;;;;4051651;29;21270;-82
2021/06/01 22:46:05;;;;;;;7.93;5.50;;;14.90;98.30;;;;;;4051060;29;20527;-83
2021/06/01 22:48:09;;;;;;;7.07;5.07;;;14.80;98.30;;;;;;4052801;29;20551;-83
2021/06/01 22:50:14;;;;;;;7.57;4.67;;;14.90;98.30;;;;;;4050380;29;20539;-82
2021/06/01 22:52:17;;;;;;;7.73;4.87;;;14.90;98.30;;;;;;4053990;29;20535;-84
2021/06/01 22:54:20;;;;;;;7.10;4.93;;;14.90;98.30;;;;;;4057613;29;20504;-83
2021/06/01 22:56:25;;;;;;;6.43;4.93;;;14.90;98.30;;;;;;4049636;29;20592;-82
2021/06/01 22:58:33;;;;;;;6.30;5.53;;;14.90;98.30;;;;;;4051907;29;20476;-83
2021/06/01 23:00:37;;;;;;;4.50;4.10;;;15.00;98.30;;;;;;4050960;29;20491;-82
2021/06/01 23:02:45;;;;;;;10.63;5.00;;;15.00;98.30;;;;;;4051750;29;20480;-83
2021/06/01 23:04:52;;;;;;;5.30;4.73;;;14.90;98.30;;;;;;4050543;29;20475;-83
2021/06/01 23:07:00;;;;;;;5.63;4.53;;;14.90;98.30;;;;;;4048548;29;20486;-83
2021/06/01 23:09:06;;;;;;;4.47;3.70;;;15.00;98.30;;;;;;4048556;29;20468;-83
2021/06/01 23:11:09;;;;;;;5.87;4.20;;;15.00;98.30;;;;;;4047615;29;20938;-83
2021/06/01 23:13:12;;;;;;;4.30;3.73;;;15.00;98.30;;;;;;4050512;29;20555;-83
2021/06/01 23:15:16;;;;;;;4.80;4.10;;;14.90;98.30;;;;;;4050531;29;20476;-82
2021/06/01 23:17:19;;;;;;;4.53;3.53;;;14.80;98.30;;;;;;4051938;29;20596;-83
2021/06/01 23:19:22;;;;;;;4.20;3.70;;;14.70;98.30;;;;;;4051499;29;20479;-83
2021/06/01 23:21:25;;;;;;;4.10;3.60;;;14.70;98.30;;;;;;4050419;29;20539;-83
2021/06/01 23:23:33;;;;;;;4.23;3.47;;;14.60;98.30;;;;;;4050758;29;20559;-82
2021/06/01 23:25:35;;;;;;;4.13;3.73;;;14.70;98.30;;;;;;4047032;29;20558;-83
2021/06/01 23:27:38;;;;;;;4.00;3.33;;;14.60;98.30;;;;;;4051969;29;20472;-83
2021/06/01 23:29:42;;;;;;;3.50;3.20;;;14.80;98.30;;;;;;4050163;29;20480;-83
2021/06/01 23:31:45;;;;;;;4.10;3.07;;;14.80;98.30;;;;;;4048938;29;20499;-83
2021/06/01 23:33:51;;;;;;;3.90;3.40;;;14.60;98.30;;;;;;4049321;29;20472;-83
2021/06/01 23:35:53;;;;;;;4.23;3.50;;;14.60;98.30;;;;;;4049165;29;20499;-83
2021/06/01 23:38:05;;;;;;;3.77;3.37;;;14.70;98.30;;;;;;4050651;29;20571;-83